Time;durP1;ratioP1;P1;durP2;ratioP2;P2;SDS_P1;SDS_P2;PMS_P1;PMS_P2;Temp;Humidity;BMP_temperature;BMP_pressure;BME280_temperature;BME280_humidity;BME280_pressure;Samples;Min_cycle;Max_cycle;Signal;HPM_P1;HPM_P2
2022/06/13 00:01:15;;;;;;;0.00;0.00;;;;;;;;;;5052697;28;20506;-72
2022/06/13 00:03:44;;;;;;;0.00;0.00;;;;;;;;;;5052648;28;20084;-72
2022/06/13 00:06:13;;;;;;;0.08;0.08;;;;;;;;;;5052350;28;20049;-71
2022/06/13 00:08:42;;;;;;;0.00;0.00;;;;;;;;;;5051582;28;20052;-72
2022/06/13 00:11:13;;;;;;;0.10;0.10;;;;;;;;;;5039151;28;20053;-72
2022/06/13 00:13:43;;;;;;;0.00;0.00;;;;;;;;;;5052461;28;20110;-72
2022/06/13 00:16:14;;;;;;;0.10;0.10;;;;;;;;;;5052007;28;20489;-72
2022/06/13 00:18:47;;;;;;;0.00;0.00;;;;;;;;;;5051676;28;20126;-71
2022/06/13 00:21:16;;;;;;;0.15;0.15;;;;;;;;;;5051793;28;20103;-72
2022/06/13 00:23:45;;;;;;;0.43;0.43;;;;;;;;;;5052291;28;20053;-72
2022/06/13 00:26:13;;;;;;;0.68;0.63;;;;;;;;;;5046889;28;20099;-69
2022/06/13 00:28:42;;;;;;;0.73;0.55;;;;;;;;;;5031487;28;20081;-70
2022/06/13 00:31:10;;;;;;;5.70;1.40;;;;;;;;;;5031674;28;20486;-71
2022/06/13 00:33:40;;;;;;;0.10;0.10;;;;;;;;;;5032430;28;20045;-69
2022/06/13 00:36:09;;;;;;;0.00;0.00;;;;;;;;;;5031573;28;20050;-70
2022/06/13 00:38:38;;;;;;;0.00;0.00;;;;;;;;;;5031506;28;20099;-70
2022/06/13 00:41:08;;;;;;;1.13;0.77;;;;;;;;;;5033289;28;20080;-70
2022/06/13 00:43:37;;;;;;;0.28;0.28;;;;;;;;;;5037722;28;20129;-70
2022/06/13 00:46:17;;;;;;;0.00;0.00;;;;;;;;;;5037706;28;20042;-70
2022/06/13 00:48:47;;;;;;;0.10;0.10;;;;;;;;;;5050515;28;20049;-71
2022/06/13 00:51:15;;;;;;;0.03;0.03;;;;;;;;;;5057173;28;20066;-71
2022/06/13 00:53:44;;;;;;;0.30;0.30;;;;;;;;;;5071045;28;20551;-71
2022/06/13 00:56:13;;;;;;;0.20;0.20;;;;;;;;;;5071667;28;20091;-72
2022/06/13 00:58:45;;;;;;;0.43;0.43;;;;;;;;;;5070987;28;20084;-73
2022/06/13 01:01:13;;;;;;;0.00;0.00;;;;;;;;;;5044932;28;20489;-72
2022/06/13 01:03:43;;;;;;;0.32;0.32;;;;;;;;;;5031822;28;20049;-74
2022/06/13 01:06:13;;;;;;;0.00;0.00;;;;;;;;;;5031869;28;20144;-73
2022/06/13 01:08:41;;;;;;;0.52;0.52;;;;;;;;;;5031370;28;20068;-73
2022/06/13 01:11:17;;;;;;;0.20;0.20;;;;;;;;;;5037952;28;20053;-71
2022/06/13 01:13:59;;;;;;;0.05;0.05;;;;;;;;;;5051402;28;20084;-73
2022/06/13 01:16:32;;;;;;;0.30;0.30;;;;;;;;;;5051348;28;20041;-73
2022/06/13 01:19:19;;;;;;;0.00;0.00;;;;;;;;;;5030905;28;20111;-72
2022/06/13 01:21:54;;;;;;;0.00;0.00;;;;;;;;;;5031071;28;20483;-72
2022/06/13 01:24:22;;;;;;;;;;;;;;;;;;5032121;28;20132;-72
2022/06/13 01:27:00;;;;;;;0.00;0.00;;;;;;;;;;5030673;28;19924;-73
2022/06/13 01:29:42;;;;;;;0.00;0.00;;;;;;;;;;5031242;28;20057;-72
2022/06/13 01:32:16;;;;;;;0.00;0.00;;;;;;;;;;5044224;28;20095;-72
2022/06/13 01:34:51;;;;;;;0.10;0.10;;;;;;;;;;5036755;28;20042;-72
2022/06/13 01:37:26;;;;;;;0.00;0.00;;;;;;;;;;5030849;28;20046;-72
2022/06/13 01:40:02;;;;;;;0.00;0.00;;;;;;;;;;5031421;28;20088;-73
2022/06/13 01:42:36;;;;;;;0.00;0.00;;;;;;;;;;5031156;28;20065;-73
2022/06/13 01:45:09;;;;;;;0.00;0.00;;;;;;;;;;5031440;28;20084;-73
2022/06/13 01:47:43;;;;;;;0.00;0.00;;;;;;;;;;5030515;28;20073;-72
2022/06/13 01:50:17;;;;;;;0.05;0.05;;;;;;;;;;5034944;28;20136;-73
2022/06/13 01:52:51;;;;;;;0.15;0.15;;;;;;;;;;5031451;28;20152;-74
2022/06/13 01:55:23;;;;;;;0.00;0.00;;;;;;;;;;5015354;28;20049;-69
2022/06/13 01:57:54;;;;;;;0.00;0.00;;;;;;;;;;5014528;28;20053;-70
2022/06/13 02:00:27;;;;;;;0.00;0.00;;;;;;;;;;5014992;28;20054;-70
2022/06/13 02:03:00;;;;;;;0.28;0.28;;;;;;;;;;5015247;28;20100;-70
2022/06/13 02:05:32;;;;;;;0.00;0.00;;;;;;;;;;5014497;28;20108;-70
2022/06/13 02:08:05;;;;;;;0.00;0.00;;;;;;;;;;5014209;28;20132;-70
2022/06/13 02:10:52;;;;;;;0.20;0.20;;;;;;;;;;5018610;28;20089;-71
2022/06/13 02:13:23;;;;;;;0.25;0.25;;;;;;;;;;5034740;28;20053;-71
2022/06/13 02:15:54;;;;;;;0.13;0.13;;;;;;;;;;5034450;28;20049;-72
2022/06/13 02:18:26;;;;;;;0.22;0.22;;;;;;;;;;5033652;28;20056;-71
2022/06/13 02:20:58;;;;;;;0.00;0.00;;;;;;;;;;5034616;28;20045;-72
2022/06/13 02:23:30;;;;;;;0.00;0.00;;;;;;;;;;5034500;28;20049;-73
2022/06/13 02:26:02;;;;;;;0.00;0.00;;;;;;;;;;5023291;28;20053;-73
2022/06/13 02:28:36;;;;;;;0.00;0.00;;;;;;;;;;5013600;28;20591;-72
2022/06/13 02:31:10;;;;;;;0.10;0.10;;;;;;;;;;5014927;28;20042;-72
2022/06/13 02:33:42;;;;;;;0.08;0.08;;;;;;;;;;5014261;28;20486;-72
2022/06/13 02:36:13;;;;;;;0.00;0.00;;;;;;;;;;5014110;28;20042;-72
2022/06/13 02:38:43;;;;;;;0.00;0.00;;;;;;;;;;5013851;28;20462;-72
2022/06/13 02:41:14;;;;;;;0.00;0.00;;;;;;;;;;5014514;28;20042;-72
2022/06/13 02:43:45;;;;;;;0.30;0.30;;;;;;;;;;5016476;28;20053;-73
2022/06/13 02:46:16;;;;;;;0.00;0.00;;;;;;;;;;5015199;28;20057;-73
2022/06/13 02:48:47;;;;;;;0.40;0.40;;;;;;;;;;5013121;28;20073;-72
2022/06/13 02:51:19;;;;;;;0.00;0.00;;;;;;;;;;5019779;28;20081;-72
2022/06/13 02:53:49;;;;;;;0.10;0.10;;;;;;;;;;5046519;28;20551;-72
2022/06/13 02:56:21;;;;;;;0.00;0.00;;;;;;;;;;5053657;28;20481;-72
2022/06/13 02:58:56;;;;;;;0.00;0.00;;;;;;;;;;5036590;28;20053;-72
2022/06/13 03:01:27;;;;;;;0.00;0.00;;;;;;;;;;5014154;28;20383;-72
2022/06/13 03:04:01;;;;;;;0.00;0.00;;;;;;;;;;5013621;28;20084;-72
2022/06/13 03:06:32;;;;;;;0.00;0.00;;;;;;;;;;5013888;28;20073;-72
2022/06/13 03:09:03;;;;;;;0.00;0.00;;;;;;;;;;5012741;28;20112;-72
2022/06/13 03:11:38;;;;;;;0.00;0.00;;;;;;;;;;5022898;28;20452;-72
2022/06/13 03:14:14;;;;;;;0.15;0.15;;;;;;;;;;5033125;28;20503;-72
2022/06/13 03:16:47;;;;;;;0.20;0.20;;;;;;;;;;5024190;28;20054;-72
2022/06/13 03:19:18;;;;;;;0.10;0.10;;;;;;;;;;5013651;28;20088;-73
2022/06/13 03:21:48;;;;;;;0.20;0.20;;;;;;;;;;5013451;28;20100;-73
2022/06/13 03:24:19;;;;;;;0.08;0.08;;;;;;;;;;5013639;28;20050;-73
2022/06/13 03:26:52;;;;;;;0.20;0.20;;;;;;;;;;5012639;28;20086;-73
2022/06/13 03:29:24;;;;;;;0.00;0.00;;;;;;;;;;5022390;28;20053;-73
2022/06/13 03:31:54;;;;;;;0.10;0.10;;;;;;;;;;5033032;28;20563;-73
2022/06/13 03:34:26;;;;;;;0.10;0.10;;;;;;;;;;5030198;28;20123;-73
2022/06/13 03:36:57;;;;;;;0.00;0.00;;;;;;;;;;5032499;28;20118;-73
2022/06/13 03:39:28;;;;;;;0.00;0.00;;;;;;;;;;5033032;28;20099;-72
2022/06/13 03:41:59;;;;;;;0.00;0.00;;;;;;;;;;5049649;28;20492;-73
2022/06/13 03:44:30;;;;;;;0.45;0.45;;;;;;;;;;5052805;28;20045;-73
2022/06/13 03:47:01;;;;;;;0.10;0.10;;;;;;;;;;5052519;28;20044;-73
2022/06/13 03:49:33;;;;;;;0.00;0.00;;;;;;;;;;5052309;28;20053;-73
2022/06/13 03:52:03;;;;;;;0.00;0.00;;;;;;;;;;5025394;28;20119;-73
2022/06/13 03:54:36;;;;;;;0.00;0.00;;;;;;;;;;5049948;28;20049;-73
2022/06/13 03:57:06;;;;;;;0.20;0.20;;;;;;;;;;5051779;28;20509;-73
2022/06/13 03:59:38;;;;;;;0.15;0.15;;;;;;;;;;5052688;28;20127;-73
2022/06/13 04:02:10;;;;;;;0.15;0.15;;;;;;;;;;5052225;28;20049;-73
2022/06/13 04:04:41;;;;;;;0.00;0.00;;;;;;;;;;5052039;28;20543;-73
2022/06/13 04:07:10;;;;;;;0.00;0.00;;;;;;;;;;5047560;28;20053;-73
2022/06/13 04:09:40;;;;;;;0.00;0.00;;;;;;;;;;5032321;28;20479;-73
2022/06/13 04:12:29;;;;;;;0.00;0.00;;;;;;;;;;5045636;28;20385;-73
2022/06/13 04:15:08;;;;;;;0.10;0.10;;;;;;;;;;5045224;28;20477;-73
2022/06/13 04:17:39;;;;;;;0.00;0.00;;;;;;;;;;5051786;28;20041;-73
2022/06/13 04:20:14;;;;;;;0.00;0.00;;;;;;;;;;5052116;28;20053;-73
2022/06/13 04:22:48;;;;;;;0.25;0.25;;;;;;;;;;5051893;28;20049;-73
2022/06/13 04:25:23;;;;;;;0.00;0.00;;;;;;;;;;5038425;28;20092;-73
2022/06/13 04:27:55;;;;;;;0.00;0.00;;;;;;;;;;5031625;28;20115;-73
2022/06/13 04:30:26;;;;;;;0.00;0.00;;;;;;;;;;5031563;28;20112;-73
2022/06/13 04:32:57;;;;;;;0.00;0.00;;;;;;;;;;5032051;28;20114;-73
2022/06/13 04:35:27;;;;;;;0.63;0.63;;;;;;;;;;5032149;28;20088;-73
2022/06/13 04:37:56;;;;;;;0.00;0.00;;;;;;;;;;5031540;28;20103;-73
2022/06/13 04:40:26;;;;;;;0.13;0.13;;;;;;;;;;5031706;28;20099;-73
2022/06/13 04:42:56;;;;;;;0.10;0.10;;;;;;;;;;5032122;28;20054;-74
2022/06/13 04:45:25;;;;;;;0.00;0.00;;;;;;;;;;5031669;28;20053;-73
2022/06/13 04:47:55;;;;;;;0.00;0.00;;;;;;;;;;5031260;28;20123;-73
2022/06/13 04:50:25;;;;;;;0.45;0.45;;;;;;;;;;5031332;28;20099;-73
2022/06/13 04:52:57;;;;;;;0.00;0.00;;;;;;;;;;5050908;28;20095;-73
2022/06/13 04:55:29;;;;;;;0.60;0.50;;;;;;;;;;5051772;28;20147;-73
2022/06/13 04:57:57;;;;;;;0.00;0.00;;;;;;;;;;5045327;28;20508;-73
2022/06/13 05:00:26;;;;;;;0.35;0.35;;;;;;;;;;5011560;28;20533;-73
2022/06/13 05:02:56;;;;;;;0.00;0.00;;;;;;;;;;5011921;28;20659;-73
2022/06/13 05:05:29;;;;;;;0.00;0.00;;;;;;;;;;5012027;28;20162;-73
2022/06/13 05:07:59;;;;;;;0.03;0.03;;;;;;;;;;5011301;28;20084;-73
2022/06/13 05:10:29;;;;;;;0.00;0.00;;;;;;;;;;5012530;28;20096;-73
2022/06/13 05:12:57;;;;;;;0.00;0.00;;;;;;;;;;5031396;28;20130;-74
2022/06/13 05:15:27;;;;;;;0.00;0.00;;;;;;;;;;5025778;28;20132;-73
2022/06/13 05:18:07;;;;;;;0.00;0.00;;;;;;;;;;5011035;28;20053;-73
2022/06/13 05:20:40;;;;;;;0.00;0.00;;;;;;;;;;5011999;28;20089;-73
2022/06/13 05:23:20;;;;;;;0.52;0.38;;;;;;;;;;5011734;28;20075;-74
2022/06/13 05:25:49;;;;;;;0.00;0.00;;;;;;;;;;5012872;28;20096;-73
2022/06/13 05:28:19;;;;;;;0.08;0.08;;;;;;;;;;5011949;28;20054;-73
2022/06/13 05:30:49;;;;;;;0.20;0.20;;;;;;;;;;5011825;28;20053;-73
2022/06/13 05:33:19;;;;;;;0.00;0.00;;;;;;;;;;5012613;28;20136;-73
2022/06/13 05:35:52;;;;;;;0.00;0.00;;;;;;;;;;5011399;28;20497;-73
2022/06/13 05:38:25;;;;;;;0.00;0.00;;;;;;;;;;5011102;28;20073;-73
2022/06/13 05:40:53;;;;;;;0.10;0.10;;;;;;;;;;5026900;28;20472;-73
2022/06/13 05:43:22;;;;;;;0.00;0.00;;;;;;;;;;5051366;28;20041;-73
2022/06/13 05:45:50;;;;;;;0.00;0.00;;;;;;;;;;5051266;28;20057;-73
2022/06/13 05:48:21;;;;;;;0.30;0.10;;;;;;;;;;5050599;28;20572;-73
2022/06/13 05:50:50;;;;;;;0.00;0.00;;;;;;;;;;5017718;28;20057;-73
2022/06/13 05:53:24;;;;;;;0.13;0.13;;;;;;;;;;5057198;28;20056;-73
2022/06/13 05:55:54;;;;;;;0.00;0.00;;;;;;;;;;5070969;28;20451;-73
2022/06/13 05:58:23;;;;;;;0.00;0.00;;;;;;;;;;5070827;28;20527;-73
2022/06/13 06:00:53;;;;;;;0.00;0.00;;;;;;;;;;5071840;28;20055;-73
2022/06/13 06:03:22;;;;;;;0.00;0.00;;;;;;;;;;5072299;28;20062;-73
2022/06/13 06:05:51;;;;;;;0.00;0.00;;;;;;;;;;5068329;28;20044;-72
2022/06/13 06:08:21;;;;;;;0.00;0.00;;;;;;;;;;5032543;28;20120;-71
2022/06/13 06:10:52;;;;;;;0.00;0.00;;;;;;;;;;5034213;28;20063;-71
2022/06/13 06:13:21;;;;;;;0.00;0.00;;;;;;;;;;5050783;28;20053;-71
2022/06/13 06:15:51;;;;;;;0.00;0.00;;;;;;;;;;5042353;28;20723;-71
2022/06/13 06:18:21;;;;;;;0.00;0.00;;;;;;;;;;5049608;28;20516;-71
2022/06/13 06:20:49;;;;;;;0.00;0.00;;;;;;;;;;5050022;28;20136;-71
2022/06/13 06:23:17;;;;;;;0.00;0.00;;;;;;;;;;5044290;28;20046;-71
2022/06/13 06:25:48;;;;;;;0.00;0.00;;;;;;;;;;5030484;28;20084;-71
2022/06/13 06:28:18;;;;;;;0.00;0.00;;;;;;;;;;5029271;28;20444;-72
2022/06/13 06:30:47;;;;;;;0.00;0.00;;;;;;;;;;5025775;28;20192;-70
2022/06/13 06:33:16;;;;;;;0.05;0.05;;;;;;;;;;5031118;28;20054;-72
2022/06/13 06:35:45;;;;;;;0.00;0.00;;;;;;;;;;5034430;28;20085;-72
2022/06/13 06:38:13;;;;;;;0.00;0.00;;;;;;;;;;5033792;28;20136;-67
2022/06/13 06:40:42;;;;;;;0.05;0.05;;;;;;;;;;5034274;28;20486;-71
2022/06/13 06:43:10;;;;;;;0.20;0.20;;;;;;;;;;5033673;28;20051;-70
2022/06/13 06:45:41;;;;;;;0.00;0.00;;;;;;;;;;5034363;28;20061;-70
2022/06/13 06:48:13;;;;;;;0.00;0.00;;;;;;;;;;5033239;28;20496;-69
2022/06/13 06:50:44;;;;;;;0.47;0.40;;;;;;;;;;5035397;28;20049;-69
2022/06/13 06:53:13;;;;;;;0.00;0.00;;;;;;;;;;5053738;28;20098;-67
2022/06/13 07:01:13;;;;;;;0.10;0.10;;;;;;;;;;4997879;28;20081;-69
2022/06/13 07:03:43;;;;;;;0.00;0.00;;;;;;;;;;5033661;28;20046;-69
2022/06/13 07:06:12;;;;;;;0.00;0.00;;;;;;;;;;5033351;28;20045;-66
2022/06/13 07:08:41;;;;;;;0.00;0.00;;;;;;;;;;5033172;28;20103;-67
2022/06/13 07:13:59;;;;;;;0.00;0.00;;;;;;;;;;5050134;28;20049;-66
2022/06/13 07:16:30;;;;;;;0.00;0.00;;;;;;;;;;5033428;28;20136;-66
2022/06/13 07:18:59;;;;;;;0.20;0.20;;;;;;;;;;5032907;28;20378;-67
2022/06/13 07:21:27;;;;;;;0.00;0.00;;;;;;;;;;5033531;28;20080;-68
2022/06/13 07:23:56;;;;;;;0.20;0.20;;;;;;;;;;5033105;28;20107;-67
2022/06/13 07:26:24;;;;;;;0.00;0.00;;;;;;;;;;5033042;28;20055;-67
2022/06/13 07:28:55;;;;;;;0.13;0.13;;;;;;;;;;5032641;28;20045;-69
2022/06/13 07:31:27;;;;;;;0.00;0.00;;;;;;;;;;5033356;28;20120;-68
2022/06/13 07:33:57;;;;;;;0.00;0.00;;;;;;;;;;5033294;28;20049;-69
2022/06/13 07:36:26;;;;;;;0.00;0.00;;;;;;;;;;5032901;28;20046;-69
2022/06/13 07:38:54;;;;;;;0.22;0.13;;;;;;;;;;5032026;28;20409;-69
2022/06/13 07:41:23;;;;;;;0.05;0.05;;;;;;;;;;5044724;28;20084;-71
2022/06/13 07:43:53;;;;;;;0.00;0.00;;;;;;;;;;5052905;28;20103;-72
2022/06/13 07:46:23;;;;;;;0.10;0.10;;;;;;;;;;5051444;28;20079;-72
2022/06/13 07:48:52;;;;;;;0.00;0.00;;;;;;;;;;5036111;28;20133;-72
2022/06/13 07:51:22;;;;;;;0.00;0.00;;;;;;;;;;5039462;28;20520;-74
2022/06/13 07:53:51;;;;;;;0.35;0.35;;;;;;;;;;5057979;28;20064;-70
2022/06/13 07:56:28;;;;;;;0.00;0.00;;;;;;;;;;5072303;28;20519;-71
2022/06/13 07:58:59;;;;;;;0.20;0.20;;;;;;;;;;5065632;28;20055;-74
2022/06/13 08:01:28;;;;;;;0.00;0.00;;;;;;;;;;5069434;28;20052;-71
2022/06/13 08:03:58;;;;;;;0.00;0.00;;;;;;;;;;5052186;28;20071;-69
2022/06/13 08:06:28;;;;;;;0.10;0.10;;;;;;;;;;5037415;28;20053;-71
2022/06/13 08:08:56;;;;;;;0.00;0.00;;;;;;;;;;5031480;28;20080;-72
2022/06/13 08:11:29;;;;;;;0.00;0.00;;;;;;;;;;5040792;28;20049;-71
2022/06/13 08:13:57;;;;;;;0.10;0.10;;;;;;;;;;5052485;28;20084;-72
2022/06/13 08:16:26;;;;;;;0.40;0.25;;;;;;;;;;5052160;28;20455;-71
2022/06/13 08:18:55;;;;;;;0.00;0.00;;;;;;;;;;5050945;28;20060;-70
2022/06/13 08:21:24;;;;;;;0.10;0.10;;;;;;;;;;5052041;28;20059;-69
2022/06/13 08:23:54;;;;;;;0.17;0.17;;;;;;;;;;5033368;28;20123;-70
2022/06/13 08:26:22;;;;;;;0.00;0.00;;;;;;;;;;5031534;28;20045;-70
2022/06/13 08:28:51;;;;;;;0.38;0.38;;;;;;;;;;5031532;28;20053;-71
2022/06/13 08:31:21;;;;;;;0.05;0.05;;;;;;;;;;5031520;28;20501;-69
2022/06/13 08:33:50;;;;;;;0.00;0.00;;;;;;;;;;5032023;28;20095;-69
2022/06/13 08:36:21;;;;;;;0.00;0.00;;;;;;;;;;5031719;28;20082;-70
2022/06/13 08:38:49;;;;;;;0.00;0.00;;;;;;;;;;5031455;28;20558;-69
2022/06/13 08:41:23;;;;;;;0.00;0.00;;;;;;;;;;5031593;28;20821;-69
2022/06/13 08:44:01;;;;;;;0.00;0.00;;;;;;;;;;5031476;28;20520;-69
2022/06/13 08:46:33;;;;;;;0.03;0.03;;;;;;;;;;5031588;28;20405;-69
2022/06/13 08:49:06;;;;;;;0.00;0.00;;;;;;;;;;5031354;28;20041;-69
2022/06/13 08:51:39;;;;;;;0.00;0.00;;;;;;;;;;5040136;28;20049;-70
2022/06/13 08:54:10;;;;;;;0.08;0.08;;;;;;;;;;5051639;28;20061;-69
2022/06/13 08:56:40;;;;;;;0.13;0.13;;;;;;;;;;5036665;28;20045;-70
2022/06/13 08:59:26;;;;;;;0.30;0.30;;;;;;;;;;5031439;28;20061;-69
2022/06/13 09:01:59;;;;;;;0.00;0.00;;;;;;;;;;5031031;28;20543;-69
2022/06/13 09:04:30;;;;;;;0.00;0.00;;;;;;;;;;5031770;28;20119;-69
2022/06/13 09:07:02;;;;;;;0.08;0.08;;;;;;;;;;5030658;28;20053;-69
2022/06/13 09:09:34;;;;;;;0.00;0.00;;;;;;;;;;5031104;28;20045;-71
2022/06/13 09:12:21;;;;;;;0.30;0.30;;;;;;;;;;5046796;28;20136;-71
2022/06/13 09:14:53;;;;;;;0.15;0.15;;;;;;;;;;5032989;28;20115;-70
2022/06/13 09:17:23;;;;;;;0.47;0.47;;;;;;;;;;5030183;28;20048;-70
2022/06/13 09:19:55;;;;;;;0.00;0.00;;;;;;;;;;5031165;28;20405;-68
2022/06/13 09:22:27;;;;;;;0.25;0.25;;;;;;;;;;5031108;28;20060;-71
2022/06/13 09:25:01;;;;;;;0.28;0.28;;;;;;;;;;5031081;28;20132;-71
2022/06/13 09:27:34;;;;;;;0.00;0.00;;;;;;;;;;5030840;28;20049;-70
2022/06/13 09:30:06;;;;;;;0.00;0.00;;;;;;;;;;5031159;28;20315;-71
2022/06/13 09:32:41;;;;;;;0.00;0.00;;;;;;;;;;5030836;28;20050;-71
2022/06/13 09:35:14;;;;;;;3.42;1.08;;;;;;;;;;5031594;28;20497;-71
2022/06/13 09:37:48;;;;;;;0.38;0.38;;;;;;;;;;5030897;28;20058;-70
2022/06/13 09:40:18;;;;;;;0.10;0.10;;;;;;;;;;5031868;28;20041;-70
2022/06/13 09:42:56;;;;;;;0.63;0.52;;;;;;;;;;5049947;28;20049;-70
2022/06/13 09:45:41;;;;;;;0.08;0.08;;;;;;;;;;5052599;28;20072;-70
2022/06/13 09:48:15;;;;;;;0.82;0.82;;;;;;;;;;5033387;28;20112;-71
2022/06/13 09:50:48;;;;;;;0.00;0.00;;;;;;;;;;5034922;28;20115;-72
2022/06/13 09:53:19;;;;;;;0.00;0.00;;;;;;;;;;5066856;28;20102;-71
2022/06/13 09:55:49;;;;;;;0.00;0.00;;;;;;;;;;5070534;28;20048;-69
2022/06/13 09:58:23;;;;;;;0.00;0.00;;;;;;;;;;5070363;28;20049;-70
2022/06/13 10:00:57;;;;;;;0.10;0.10;;;;;;;;;;5070885;28;20049;-71
2022/06/13 10:03:34;;;;;;;0.00;0.00;;;;;;;;;;5070467;28;20153;-70
2022/06/13 10:06:08;;;;;;;0.03;0.03;;;;;;;;;;5030748;28;20062;-70
2022/06/13 10:08:48;;;;;;;0.00;0.00;;;;;;;;;;5030671;28;20046;-70
2022/06/13 10:11:21;;;;;;;0.00;0.00;;;;;;;;;;5042378;28;20095;-70
2022/06/13 10:14:05;;;;;;;0.00;0.00;;;;;;;;;;5054523;28;20045;-71
2022/06/13 10:16:38;;;;;;;0.30;0.30;;;;;;;;;;5054625;28;20049;-71
2022/06/13 10:19:11;;;;;;;0.00;0.00;;;;;;;;;;5035584;28;20255;-70
2022/06/13 10:21:43;;;;;;;0.00;0.00;;;;;;;;;;5046070;28;20068;-71
2022/06/13 10:24:17;;;;;;;0.00;0.00;;;;;;;;;;5049086;28;20099;-70
2022/06/13 10:26:49;;;;;;;0.00;0.00;;;;;;;;;;5046955;28;20092;-71
2022/06/13 10:29:25;;;;;;;0.00;0.00;;;;;;;;;;5034662;28;20719;-71
2022/06/13 10:32:01;;;;;;;0.00;0.00;;;;;;;;;;5047624;28;20455;-70
2022/06/13 10:34:34;;;;;;;0.00;0.00;;;;;;;;;;5054440;28;20132;-72
2022/06/13 10:37:08;;;;;;;0.00;0.00;;;;;;;;;;5053896;28;20334;-71
2022/06/13 10:39:36;;;;;;;0.00;0.00;;;;;;;;;;5063202;28;20040;-71
2022/06/13 10:42:08;;;;;;;0.05;0.05;;;;;;;;;;5074470;28;20091;-72
2022/06/13 10:44:39;;;;;;;0.00;0.00;;;;;;;;;;5074173;28;20049;-72
2022/06/13 10:47:10;;;;;;;0.17;0.17;;;;;;;;;;5073187;28;20052;-71
2022/06/13 10:49:40;;;;;;;0.00;0.00;;;;;;;;;;5071143;28;20090;-72
2022/06/13 10:52:14;;;;;;;0.00;0.00;;;;;;;;;;5060893;28;20049;-71
2022/06/13 10:54:45;;;;;;;0.00;0.00;;;;;;;;;;5052328;28;20088;-71
2022/06/13 10:57:15;;;;;;;0.00;0.00;;;;;;;;;;5033256;28;20065;-72
2022/06/13 10:59:45;;;;;;;0.00;0.00;;;;;;;;;;5033687;28;20531;-71
2022/06/13 11:02:24;;;;;;;1.38;0.80;;;;;;;;;;5033908;28;20053;-72
2022/06/13 11:05:05;;;;;;;0.00;0.00;;;;;;;;;;5032881;28;20041;-71
2022/06/13 11:07:35;;;;;;;0.00;0.00;;;;;;;;;;5033388;28;20408;-71
2022/06/13 11:10:04;;;;;;;0.05;0.05;;;;;;;;;;5033694;28;20334;-70
2022/06/13 11:12:33;;;;;;;0.65;0.52;;;;;;;;;;5043155;28;20049;-71
2022/06/13 11:23:37;;;;;;;0.30;0.30;;;;;;;;;;5033250;28;20457;-71
2022/06/13 11:27:39;;;;;;;0.00;0.00;;;;;;;;;;5032853;28;20045;-72
2022/06/13 11:28:57;;;;;;;0.00;0.00;;;;;;;;;;5032643;28;20111;-70
2022/06/13 11:31:27;;;;;;;0.35;0.35;;;;;;;;;;5032876;28;20494;-71
2022/06/13 11:33:55;;;;;;;0.00;0.00;;;;;;;;;;5032797;28;20127;-71
2022/06/13 11:36:26;;;;;;;0.00;0.00;;;;;;;;;;5033255;28;20123;-70
2022/06/13 11:38:56;;;;;;;0.00;0.00;;;;;;;;;;5031973;28;20136;-71
2022/06/13 11:41:25;;;;;;;0.00;0.00;;;;;;;;;;5033264;28;20085;-70
2022/06/13 11:43:56;;;;;;;0.05;0.05;;;;;;;;;;5032806;28;20105;-70
2022/06/13 11:46:45;;;;;;;0.00;0.00;;;;;;;;;;5032799;28;20459;-70
2022/06/13 11:49:29;;;;;;;0.00;0.00;;;;;;;;;;4989911;28;20112;-70
2022/06/13 11:51:58;;;;;;;0.00;0.00;;;;;;;;;;5037678;28;20436;-71
2022/06/13 11:54:29;;;;;;;0.00;0.00;;;;;;;;;;5052502;28;20115;-70
2022/06/13 11:57:18;;;;;;;0.00;0.00;;;;;;;;;;5051948;28;20099;-71
2022/06/13 11:59:49;;;;;;;0.20;0.20;;;;;;;;;;5052887;28;20091;-71
2022/06/13 12:02:19;;;;;;;0.13;0.13;;;;;;;;;;5052696;28;20056;-69
2022/06/13 12:04:50;;;;;;;0.10;0.10;;;;;;;;;;5028230;28;20049;-71
2022/06/13 12:07:24;;;;;;;0.00;0.00;;;;;;;;;;5032086;28;20045;-70
2022/06/13 12:09:53;;;;;;;0.20;0.20;;;;;;;;;;5032056;28;20124;-71
2022/06/13 12:12:22;;;;;;;0.00;0.00;;;;;;;;;;5048844;28;20134;-69
2022/06/13 12:14:51;;;;;;;0.90;0.75;;;;;;;;;;5052449;28;20111;-71
2022/06/13 12:17:22;;;;;;;0.00;0.00;;;;;;;;;;5051552;28;20103;-69
2022/06/13 12:19:57;;;;;;;0.00;0.00;;;;;;;;;;5050041;28;20563;-71
2022/06/13 12:22:31;;;;;;;0.00;0.00;;;;;;;;;;5032219;28;20108;-71
2022/06/13 12:25:04;;;;;;;0.00;0.00;;;;;;;;;;5031885;28;20462;-70
2022/06/13 12:27:38;;;;;;;0.00;0.00;;;;;;;;;;5031624;28;20045;-69
2022/06/13 12:30:21;;;;;;;0.10;0.10;;;;;;;;;;5031621;28;20056;-70
2022/06/13 12:32:54;;;;;;;0.00;0.00;;;;;;;;;;5050879;28;20459;-71
2022/06/13 12:35:31;;;;;;;0.00;0.00;;;;;;;;;;5050862;28;20047;-70
2022/06/13 12:38:04;;;;;;;0.10;0.10;;;;;;;;;;5040908;28;20050;-71
2022/06/13 12:40:38;;;;;;;0.00;0.00;;;;;;;;;;5033312;28;20104;-71
2022/06/13 12:43:18;;;;;;;0.00;0.00;;;;;;;;;;5051863;28;20073;-71
2022/06/13 12:45:57;;;;;;;0.00;0.00;;;;;;;;;;5051672;28;20045;-70
2022/06/13 12:48:28;;;;;;;0.57;0.00;;;;;;;;;;5051205;28;20128;-70
2022/06/13 12:51:06;;;;;;;0.22;0.22;;;;;;;;;;5048149;28;20049;-68
2022/06/13 12:53:50;;;;;;;0.00;0.00;;;;;;;;;;5065983;28;20143;-69
2022/06/13 12:56:26;;;;;;;0.00;0.00;;;;;;;;;;5031642;28;20053;-69
2022/06/13 12:59:08;;;;;;;0.00;0.00;;;;;;;;;;5030926;28;20497;-69
2022/06/13 13:01:38;;;;;;;0.20;0.20;;;;;;;;;;5032063;28;20099;-69
2022/06/13 13:04:27;;;;;;;0.00;0.00;;;;;;;;;;5031301;28;20057;-69
2022/06/13 13:07:00;;;;;;;0.00;0.00;;;;;;;;;;5030613;28;20065;-71
2022/06/13 13:09:36;;;;;;;0.10;0.10;;;;;;;;;;5031644;28;20093;-70
2022/06/13 13:12:15;;;;;;;0.00;0.00;;;;;;;;;;5033672;28;20052;-69
2022/06/13 13:14:49;;;;;;;0.00;0.00;;;;;;;;;;5031107;28;20046;-70
2022/06/13 13:17:22;;;;;;;0.20;0.15;;;;;;;;;;5031223;28;20049;-69
2022/06/13 13:19:54;;;;;;;0.00;0.00;;;;;;;;;;5032061;28;20197;-69
2022/06/13 13:22:28;;;;;;;0.00;0.00;;;;;;;;;;5031339;28;20100;-69
2022/06/13 13:25:04;;;;;;;0.08;0.08;;;;;;;;;;5032765;28;20481;-69
2022/06/13 13:27:36;;;;;;;0.20;0.20;;;;;;;;;;5032575;28;20045;-69
2022/06/13 13:30:07;;;;;;;0.00;0.00;;;;;;;;;;5033192;28;20115;-69
2022/06/13 13:32:40;;;;;;;0.45;0.43;;;;;;;;;;5048422;28;20060;-69
2022/06/13 13:35:17;;;;;;;0.00;0.00;;;;;;;;;;5050880;28;20049;-69
2022/06/13 13:37:50;;;;;;;0.00;0.00;;;;;;;;;;5050540;28;20122;-69
2022/06/13 13:40:21;;;;;;;0.00;0.00;;;;;;;;;;5051243;28;20057;-70
2022/06/13 13:42:55;;;;;;;2.00;0.47;;;;;;;;;;5050592;28;20064;-71
2022/06/13 13:45:29;;;;;;;0.00;0.00;;;;;;;;;;5047494;28;20060;-69
2022/06/13 13:48:01;;;;;;;0.00;0.00;;;;;;;;;;5034705;28;20099;-70
2022/06/13 13:50:32;;;;;;;0.00;0.00;;;;;;;;;;5035021;28;20092;-70
2022/06/13 13:53:05;;;;;;;0.00;0.00;;;;;;;;;;5034678;28;20095;-70
2022/06/13 13:55:38;;;;;;;0.00;0.00;;;;;;;;;;5035117;28;20045;-70
2022/06/13 13:58:12;;;;;;;0.35;0.35;;;;;;;;;;5034167;28;20046;-70
2022/06/13 14:00:43;;;;;;;0.00;0.00;;;;;;;;;;5034605;28;20512;-70
2022/06/13 14:03:18;;;;;;;0.00;0.00;;;;;;;;;;5034877;28;20504;-68
2022/06/13 14:05:50;;;;;;;0.00;0.00;;;;;;;;;;5034747;28;20057;-70
2022/06/13 14:08:21;;;;;;;0.00;0.00;;;;;;;;;;5034710;28;20144;-71
2022/06/13 14:10:53;;;;;;;0.00;0.00;;;;;;;;;;5038717;28;20519;-71
2022/06/13 14:13:23;;;;;;;0.25;0.10;;;;;;;;;;5054255;28;20447;-71
2022/06/13 14:16:06;;;;;;;0.00;0.00;;;;;;;;;;5054543;28;20080;-70
2022/06/13 14:18:56;;;;;;;0.00;0.00;;;;;;;;;;5053505;28;20051;-70
2022/06/13 14:21:37;;;;;;;0.08;0.08;;;;;;;;;;5034316;28;20050;-70
2022/06/13 14:24:11;;;;;;;0.00;0.00;;;;;;;;;;5033956;28;20493;-70
2022/06/13 14:26:55;;;;;;;0.00;0.00;;;;;;;;;;5034051;28;20125;-70
2022/06/13 14:29:28;;;;;;;0.10;0.10;;;;;;;;;;5033920;28;20129;-70
2022/06/13 14:31:57;;;;;;;0.00;0.00;;;;;;;;;;5034346;28;20563;-71
2022/06/13 14:37:29;;;;;;;0.10;0.10;;;;;;;;;;5033607;28;20041;-70
2022/06/13 14:40:01;;;;;;;0.00;0.00;;;;;;;;;;5034025;28;20131;-71
2022/06/13 14:42:43;;;;;;;0.00;0.00;;;;;;;;;;5034019;28;20053;-70
2022/06/13 14:45:14;;;;;;;0.10;0.10;;;;;;;;;;5034342;28;20077;-69
2022/06/13 14:47:58;;;;;;;0.00;0.00;;;;;;;;;;5033759;28;20460;-70
2022/06/13 14:50:47;;;;;;;0.00;0.00;;;;;;;;;;5018323;28;20081;-70
2022/06/13 14:53:31;;;;;;;0.00;0.00;;;;;;;;;;5029736;28;20084;-70
2022/06/13 14:56:18;;;;;;;0.00;0.00;;;;;;;;;;5033641;28;20081;-70
2022/06/13 14:58:58;;;;;;;0.00;0.00;;;;;;;;;;5051601;28;20053;-70
2022/06/13 15:01:28;;;;;;;0.00;0.00;;;;;;;;;;5053973;28;20049;-70
2022/06/13 15:04:14;;;;;;;0.00;0.00;;;;;;;;;;5054241;28;20055;-71
2022/06/13 15:06:48;;;;;;;0.43;0.43;;;;;;;;;;5052883;28;20052;-70
2022/06/13 15:09:20;;;;;;;0.00;0.00;;;;;;;;;;5053910;28;20045;-70
2022/06/13 15:11:49;;;;;;;0.00;0.00;;;;;;;;;;5043500;28;20547;-70
2022/06/13 15:14:20;;;;;;;0.00;0.00;;;;;;;;;;5054470;28;20060;-71
2022/06/13 15:16:50;;;;;;;0.20;0.13;;;;;;;;;;5053035;28;20053;-71
2022/06/13 15:19:20;;;;;;;0.00;0.00;;;;;;;;;;5053613;28;20135;-71
2022/06/13 15:21:50;;;;;;;0.00;0.00;;;;;;;;;;5053528;28;20056;-70
2022/06/13 15:24:19;;;;;;;0.00;0.00;;;;;;;;;;5053379;28;20079;-70
2022/06/13 15:26:49;;;;;;;0.85;0.38;;;;;;;;;;5044982;28;20081;-70
2022/06/13 15:29:20;;;;;;;0.00;0.00;;;;;;;;;;5033394;28;20056;-71
2022/06/13 15:31:50;;;;;;;0.00;0.00;;;;;;;;;;5033456;28;20053;-70
2022/06/13 15:34:20;;;;;;;0.30;0.30;;;;;;;;;;5033837;28;20138;-71